createdAt,value
2024-01-11T00:00:29.371Z,1.40
2024-01-11T00:02:57.669Z,1.80
2024-01-11T00:05:28.136Z,1.33
2024-01-11T00:07:56.532Z,1.93
2024-01-11T00:10:25.341Z,1.47
2024-01-11T00:12:55.028Z,1.70
2024-01-11T00:15:23.568Z,1.17
2024-01-11T00:17:51.976Z,1.40
2024-01-11T00:20:20.429Z,1.83
2024-01-11T00:22:51.895Z,2.00
2024-01-11T00:25:20.412Z,1.50
2024-01-11T00:27:48.716Z,1.97
2024-01-11T00:30:18.554Z,1.60
2024-01-11T00:32:48.763Z,1.40
2024-01-11T00:35:17.145Z,1.20
2024-01-11T00:37:48.046Z,1.40
2024-01-11T00:40:17.945Z,1.73
2024-01-11T00:42:46.998Z,1.97
2024-01-11T00:45:15.350Z,1.33
2024-01-11T00:47:46.874Z,1.30
2024-01-11T00:50:15.231Z,1.37
2024-01-11T00:52:45.710Z,1.27
2024-01-11T00:55:17.321Z,1.97
2024-01-11T00:57:48.061Z,1.40
2024-01-11T01:00:19.872Z,1.23
2024-01-11T01:02:51.387Z,1.73
2024-01-11T01:05:19.972Z,1.47
2024-01-11T01:07:50.812Z,1.90
2024-01-11T01:10:20.397Z,2.00
2024-01-11T01:12:48.762Z,1.40
2024-01-11T01:15:18.567Z,1.30
2024-01-11T01:17:47.099Z,1.17
2024-01-11T01:20:16.974Z,1.70
2024-01-11T01:22:45.483Z,1.10
2024-01-11T01:25:13.853Z,0.87
2024-01-11T01:27:43.115Z,1.20
2024-01-11T01:30:12.885Z,1.33
2024-01-11T01:32:41.530Z,1.23
2024-01-11T01:35:10.227Z,1.57
2024-01-11T01:37:39.899Z,1.07
2024-01-11T01:40:10.163Z,1.40
2024-01-11T01:42:38.458Z,1.30
2024-01-11T01:45:07.350Z,1.53
2024-01-11T01:47:38.898Z,1.10
2024-01-11T01:50:09.799Z,1.60
2024-01-11T01:52:40.004Z,0.90
2024-01-11T01:55:09.740Z,1.03
2024-01-11T01:57:38.110Z,0.87
2024-01-11T02:00:06.953Z,1.40
2024-01-11T02:02:35.307Z,1.13
2024-01-11T02:05:04.628Z,1.53
2024-01-11T02:07:36.136Z,1.10
2024-01-11T02:10:04.546Z,1.30
2024-01-11T02:12:34.592Z,1.90
2024-01-11T02:15:04.655Z,0.90
2024-01-11T02:17:33.051Z,1.10
2024-01-11T02:20:04.759Z,0.93
2024-01-11T02:22:34.828Z,1.47
2024-01-11T02:25:04.739Z,1.40
2024-01-11T02:27:33.068Z,1.20
2024-01-11T02:30:01.351Z,1.40
2024-01-11T02:32:30.369Z,1.40
2024-01-11T02:34:58.847Z,1.00
2024-01-11T02:37:27.212Z,1.03
2024-01-11T02:39:57.236Z,1.37
2024-01-11T02:42:29.133Z,1.27
2024-01-11T02:44:57.431Z,1.20
2024-01-11T02:47:25.827Z,0.73
2024-01-11T02:49:54.496Z,1.50
2024-01-11T02:52:22.834Z,0.87
2024-01-11T02:54:51.195Z,0.90
2024-01-11T02:57:19.567Z,1.00
2024-01-11T02:59:49.251Z,0.97
2024-01-11T03:02:17.652Z,1.30
2024-01-11T03:04:46.707Z,0.73
2024-01-11T03:07:15.108Z,0.70
2024-01-11T03:09:43.515Z,1.33
2024-01-11T03:12:11.851Z,1.77
2024-01-11T03:14:40.270Z,1.20
2024-01-11T03:17:10.095Z,1.70
2024-01-11T03:19:42.468Z,2.03
2024-01-11T03:22:10.767Z,1.73
2024-01-11T03:24:42.264Z,1.50
2024-01-11T03:27:09.879Z,2.73
2024-01-11T03:29:39.434Z,1.90
2024-01-11T03:32:08.284Z,2.57
2024-01-11T03:34:39.679Z,1.60
2024-01-11T03:37:08.026Z,2.90
2024-01-11T03:39:36.318Z,2.20
2024-01-11T03:42:05.996Z,2.43
2024-01-11T03:44:34.330Z,2.60
2024-01-11T03:47:02.691Z,2.47
2024-01-11T03:49:31.069Z,2.67
2024-01-11T03:52:00.759Z,3.03
2024-01-11T03:54:29.102Z,3.03
2024-01-11T03:56:56.952Z,2.80
2024-01-11T03:59:25.282Z,2.47
2024-01-11T04:01:54.921Z,3.03
2024-01-11T04:04:24.861Z,2.50
2024-01-11T04:06:53.960Z,2.43
2024-01-11T04:09:24.260Z,1.90
2024-01-11T04:11:52.566Z,3.27
2024-01-11T04:14:20.911Z,2.47
2024-01-11T04:16:49.269Z,2.93
2024-01-11T04:19:18.923Z,2.97
2024-01-11T04:21:48.881Z,2.17
2024-01-11T04:24:17.288Z,3.10
2024-01-11T04:26:48.018Z,2.57
2024-01-11T04:29:17.355Z,2.43
2024-01-11T04:31:45.761Z,3.40
2024-01-11T04:34:14.166Z,2.33
2024-01-11T04:36:42.473Z,3.00
2024-01-11T04:39:12.552Z,3.17
2024-01-11T04:41:42.999Z,2.40
2024-01-11T04:44:12.836Z,2.93
2024-01-11T04:46:41.168Z,2.90
2024-01-11T04:49:09.561Z,3.07
2024-01-11T04:51:38.756Z,2.30
2024-01-11T04:54:07.124Z,2.20
2024-01-11T04:56:35.495Z,2.80
2024-01-11T04:59:03.947Z,2.87
2024-01-11T05:01:33.587Z,3.23
2024-01-11T05:04:03.461Z,3.60
2024-01-11T05:06:31.836Z,2.73
2024-01-11T05:09:00.112Z,2.70
2024-01-11T05:11:30.288Z,3.63
2024-01-11T05:13:58.655Z,3.97
2024-01-11T05:16:27.211Z,2.30
2024-01-11T05:18:57.308Z,2.60
2024-01-11T05:21:26.790Z,2.70
2024-01-11T05:23:55.344Z,3.20
2024-01-11T05:26:23.745Z,2.80
2024-01-11T05:28:52.160Z,2.73
2024-01-11T05:31:20.652Z,3.47
2024-01-11T05:33:49.602Z,3.30
2024-01-11T05:36:19.516Z,3.13
2024-01-11T05:38:47.834Z,3.07
2024-01-11T05:41:16.289Z,2.93
2024-01-11T05:43:45.314Z,2.47
2024-01-11T05:46:13.631Z,2.40
2024-01-11T05:48:42.095Z,2.87
2024-01-11T05:51:11.109Z,3.67
2024-01-11T05:53:40.846Z,3.23
2024-01-11T05:56:12.486Z,3.40
2024-01-11T05:58:41.034Z,2.87
2024-01-11T06:01:11.222Z,2.43
2024-01-11T06:03:40.541Z,2.87
2024-01-11T06:06:09.621Z,2.80
2024-01-11T06:08:44.119Z,2.63
2024-01-11T06:11:13.987Z,2.63
2024-01-11T06:13:43.714Z,2.37
2024-01-11T06:16:15.705Z,2.33
2024-01-11T06:18:46.023Z,3.03
2024-01-11T06:21:14.608Z,3.23
2024-01-11T06:23:44.579Z,2.73
2024-01-11T06:26:16.295Z,2.33
2024-01-11T06:28:45.747Z,2.10
2024-01-11T06:31:14.142Z,1.77
2024-01-11T06:33:42.546Z,1.77
2024-01-11T06:36:10.902Z,2.33
2024-01-11T06:38:39.219Z,1.73
2024-01-11T06:41:10.002Z,1.93
2024-01-11T06:43:39.682Z,2.30
2024-01-11T06:46:08.254Z,2.20
2024-01-11T06:48:36.738Z,3.03
2024-01-11T06:51:07.572Z,2.40
2024-01-11T06:53:36.046Z,1.80
2024-01-11T06:56:04.441Z,1.67
2024-01-11T06:58:32.769Z,2.60
2024-01-11T07:01:02.606Z,2.20
2024-01-11T07:03:30.939Z,1.53
2024-01-11T07:05:59.320Z,1.73
2024-01-11T07:08:27.705Z,1.73
2024-01-11T07:10:56.696Z,1.67
2024-01-11T07:13:25.023Z,1.20
2024-01-11T07:15:56.549Z,1.97
2024-01-11T07:18:26.287Z,2.43
2024-01-11T07:20:58.115Z,2.20
2024-01-11T07:23:26.536Z,2.13
2024-01-11T07:25:54.854Z,1.70
2024-01-11T07:28:26.454Z,1.97
2024-01-11T07:30:55.084Z,1.30
2024-01-11T07:33:23.641Z,1.33
2024-01-11T07:35:54.668Z,2.00
2024-01-11T07:38:23.085Z,1.60
2024-01-11T07:40:51.425Z,2.40
2024-01-11T07:43:19.721Z,1.90
2024-01-11T07:45:49.569Z,2.53
2024-01-11T07:48:18.110Z,1.43
2024-01-11T07:50:46.682Z,1.40
2024-01-11T07:53:18.283Z,2.20
2024-01-11T07:55:48.742Z,1.63
2024-01-11T07:58:17.247Z,2.60
2024-01-11T08:00:46.608Z,2.87
2024-01-11T08:03:15.110Z,2.20
2024-01-11T08:05:44.553Z,1.97
2024-01-11T08:08:12.946Z,2.27
2024-01-11T08:10:44.563Z,2.27
2024-01-11T08:13:14.211Z,2.17
2024-01-11T08:15:42.935Z,2.70
2024-01-11T08:18:11.946Z,2.47
2024-01-11T08:20:40.418Z,2.07
2024-01-11T08:23:08.692Z,1.57
2024-01-11T08:25:37.021Z,2.30
2024-01-11T08:28:07.333Z,2.03
2024-01-11T08:30:37.631Z,2.13
2024-01-11T08:33:06.409Z,1.30
2024-01-11T08:35:35.086Z,1.60
2024-01-11T08:38:05.756Z,1.00
2024-01-11T08:40:34.077Z,1.77
2024-01-11T08:43:04.389Z,1.30
2024-01-11T08:45:35.399Z,1.43
2024-01-11T08:48:03.966Z,1.20
2024-01-11T08:50:34.864Z,1.90
2024-01-11T08:53:04.422Z,1.63
2024-01-11T08:55:34.873Z,1.70
2024-01-11T08:58:05.590Z,1.40
2024-01-11T09:00:35.330Z,1.80
2024-01-11T09:03:05.977Z,1.83
2024-01-11T09:05:34.514Z,1.70
2024-01-11T09:08:02.896Z,1.73
2024-01-11T09:10:31.254Z,1.90
2024-01-11T09:12:59.572Z,1.40
2024-01-11T09:15:27.904Z,1.40
2024-01-11T09:17:57.705Z,1.47
2024-01-11T09:20:26.190Z,1.50
2024-01-11T09:22:55.458Z,1.53
2024-01-11T09:25:25.110Z,1.43
2024-01-11T09:27:54.590Z,1.73
2024-01-11T09:30:23.005Z,1.70
2024-01-11T09:32:53.518Z,1.93
2024-01-11T09:35:25.213Z,1.97
2024-01-11T09:37:53.566Z,1.60
2024-01-11T09:40:21.837Z,1.70
2024-01-11T09:42:50.473Z,1.70
2024-01-11T09:45:19.075Z,1.43
2024-01-11T09:47:48.125Z,1.23
2024-01-11T09:50:18.754Z,1.23
2024-01-11T09:52:50.050Z,2.13
2024-01-11T09:55:18.421Z,1.70
2024-01-11T09:57:48.253Z,1.40
2024-01-11T10:00:17.546Z,1.43
2024-01-11T10:02:45.937Z,1.67
2024-01-11T10:05:15.988Z,1.53
2024-01-11T10:07:44.461Z,2.20
2024-01-11T10:10:16.383Z,2.60
2024-01-11T10:12:44.708Z,2.33
2024-01-11T10:15:14.743Z,2.23
2024-01-11T10:17:45.308Z,1.70
2024-01-11T10:20:15.000Z,2.00
2024-01-11T10:22:44.091Z,1.90
2024-01-11T10:25:14.192Z,1.87
2024-01-11T10:27:44.076Z,1.77
2024-01-11T10:30:14.590Z,2.17
2024-01-11T10:32:45.070Z,1.70
2024-01-11T10:35:13.519Z,2.10
2024-01-11T10:37:42.926Z,2.10
2024-01-11T10:40:13.691Z,1.53
2024-01-11T10:42:44.784Z,1.50
2024-01-11T10:45:13.812Z,1.93
2024-01-11T10:47:42.158Z,1.80
2024-01-11T10:50:11.623Z,1.30
2024-01-11T10:52:45.712Z,1.63
2024-01-11T10:55:14.083Z,1.67
2024-01-11T10:57:44.507Z,1.50
2024-01-11T11:00:13.748Z,1.50
2024-01-11T11:02:42.123Z,1.60
2024-01-11T11:05:11.142Z,1.40
2024-01-11T11:07:39.782Z,1.07
2024-01-11T11:10:08.756Z,1.17
2024-01-11T11:12:37.246Z,1.20
2024-01-11T11:15:07.549Z,1.10
2024-01-11T11:17:35.989Z,0.93
2024-01-11T11:20:04.488Z,1.23
2024-01-11T11:22:37.057Z,1.20
2024-01-11T11:25:07.006Z,1.37
2024-01-11T11:27:35.326Z,1.00
2024-01-11T11:30:04.139Z,1.10
2024-01-11T11:32:40.324Z,1.70
2024-01-11T11:35:09.977Z,1.40
2024-01-11T11:37:39.761Z,2.43
2024-01-11T11:40:08.771Z,1.10
2024-01-11T11:42:37.197Z,1.40
2024-01-11T11:45:05.707Z,1.40
2024-01-11T11:47:40.420Z,1.37
2024-01-11T11:50:11.657Z,1.20
2024-01-11T11:52:40.606Z,1.40
2024-01-11T11:55:09.611Z,1.00
2024-01-11T11:57:38.098Z,1.60
2024-01-11T12:00:07.522Z,1.23
2024-01-11T12:02:37.495Z,16.17
2024-01-11T12:05:06.543Z,50.60
2024-01-11T12:07:36.441Z,148.23
2024-01-11T12:10:04.913Z,434.97
2024-01-11T12:12:33.266Z,487.03
2024-01-11T12:15:01.688Z,130.70
2024-01-11T12:17:30.214Z,49.40
2024-01-11T12:19:58.676Z,39.00
2024-01-11T12:22:27.106Z,47.13
2024-01-11T12:24:57.250Z,29.43
2024-01-11T12:27:25.603Z,21.87
2024-01-11T12:29:58.917Z,18.13
2024-01-11T12:32:28.335Z,9.43
2024-01-11T12:34:56.929Z,7.73
2024-01-11T12:37:25.411Z,5.50
2024-01-11T12:40:00.832Z,3.63
2024-01-11T12:42:29.142Z,3.73
2024-01-11T12:44:59.360Z,3.07
2024-01-11T12:47:28.317Z,3.30
2024-01-11T12:49:57.251Z,2.57
2024-01-11T12:52:28.527Z,1.80
2024-01-11T12:54:57.764Z,1.80
2024-01-11T12:57:27.871Z,1.70
2024-01-11T12:59:56.855Z,1.57
2024-01-11T13:02:25.452Z,1.50
2024-01-11T13:04:53.829Z,1.23
2024-01-11T13:07:24.214Z,1.40
2024-01-11T13:09:52.611Z,1.70
2024-01-11T13:12:22.078Z,0.90
2024-01-11T13:14:54.154Z,1.10
2024-01-11T13:17:22.609Z,0.80
2024-01-11T13:19:51.373Z,1.10
2024-01-11T13:22:19.824Z,1.40
2024-01-11T13:24:48.149Z,1.20
2024-01-11T13:27:16.527Z,1.17
2024-01-11T13:29:44.915Z,0.80
2024-01-11T13:32:14.640Z,1.10
2024-01-11T13:34:43.791Z,1.33
2024-01-11T13:37:12.303Z,1.07
2024-01-11T13:39:40.612Z,1.30
2024-01-11T13:42:10.668Z,1.00
2024-01-11T13:44:39.180Z,1.10
2024-01-11T13:47:07.731Z,1.20
2024-01-11T13:49:37.494Z,0.90
2024-01-11T13:52:07.393Z,0.80
2024-01-11T13:54:35.766Z,1.10
2024-01-11T13:57:04.324Z,1.00
2024-01-11T13:59:33.968Z,0.70
2024-01-11T14:02:03.292Z,0.83
2024-01-11T14:04:31.656Z,1.20
2024-01-11T14:07:01.515Z,0.83
2024-01-11T14:09:29.852Z,0.90
2024-01-11T14:11:58.263Z,0.77
2024-01-11T14:14:26.669Z,0.80
2024-01-11T14:16:55.031Z,0.90
2024-01-11T14:19:23.545Z,1.03
2024-01-11T14:21:51.952Z,0.80
2024-01-11T14:24:26.649Z,1.00
2024-01-11T14:27:01.155Z,0.83
2024-01-11T14:29:30.349Z,0.80
2024-01-11T14:31:58.693Z,0.80
2024-01-11T14:34:28.659Z,1.13
2024-01-11T14:37:00.249Z,1.10
2024-01-11T14:39:29.980Z,1.50
2024-01-11T14:41:58.500Z,1.07
2024-01-11T14:44:26.946Z,1.50
2024-01-11T14:46:55.414Z,1.67
2024-01-11T14:49:24.036Z,1.67
2024-01-11T14:51:52.412Z,1.40
2024-01-11T14:54:21.510Z,1.90
2024-01-11T14:56:51.259Z,1.60
2024-01-11T14:59:19.662Z,1.40
2024-01-11T15:01:50.072Z,1.90
2024-01-11T15:04:18.716Z,1.97
2024-01-11T15:06:47.186Z,2.33
2024-01-11T15:09:27.446Z,1.90
2024-01-11T15:12:03.328Z,2.00
2024-01-11T15:14:35.386Z,2.57
2024-01-11T15:17:10.874Z,3.10
2024-01-11T15:19:45.252Z,2.80
2024-01-11T15:22:23.458Z,2.73
2024-01-11T15:24:56.692Z,2.83
2024-01-11T15:27:36.638Z,2.60
2024-01-11T15:30:08.309Z,2.53
2024-01-11T15:32:45.833Z,3.30
2024-01-11T15:35:18.690Z,3.00
2024-01-11T15:37:51.735Z,3.10
2024-01-11T15:40:24.712Z,2.63
2024-01-11T15:42:57.049Z,3.67
2024-01-11T15:45:27.877Z,3.70
2024-01-11T15:47:58.469Z,4.53
2024-01-11T15:50:34.339Z,5.80
2024-01-11T15:53:08.880Z,7.17
2024-01-11T15:55:37.416Z,6.70
2024-01-11T15:58:08.316Z,9.30
2024-01-11T16:00:40.218Z,8.90
2024-01-11T16:03:09.088Z,8.07
2024-01-11T16:05:40.746Z,9.27
2024-01-11T16:08:09.754Z,7.77
2024-01-11T16:10:38.325Z,8.77
2024-01-11T16:13:09.632Z,8.93
2024-01-11T16:15:38.018Z,9.47
2024-01-11T16:18:07.691Z,8.97
2024-01-11T16:20:37.413Z,9.43
2024-01-11T16:23:06.344Z,9.50
2024-01-11T16:25:34.775Z,8.87
2024-01-11T16:28:03.206Z,8.70
2024-01-11T16:30:33.314Z,8.57
2024-01-11T16:33:02.590Z,9.30
2024-01-11T16:35:33.349Z,7.93
2024-01-11T16:38:04.451Z,7.53
2024-01-11T16:40:33.236Z,7.03
2024-01-11T16:43:01.724Z,9.13
2024-01-11T16:45:33.029Z,6.83
2024-01-11T16:48:06.370Z,8.03
2024-01-11T16:50:35.720Z,6.73
2024-01-11T16:53:04.220Z,14.47
2024-01-11T16:55:33.150Z,43.43
2024-01-11T16:58:02.787Z,46.03
2024-01-11T17:00:31.379Z,37.20
2024-01-11T17:03:00.617Z,27.03
2024-01-11T17:05:31.409Z,17.73
2024-01-11T17:07:59.911Z,14.80
2024-01-11T17:10:29.123Z,8.07
2024-01-11T17:12:58.078Z,8.00
2024-01-11T17:15:27.885Z,8.87
2024-01-11T17:17:57.686Z,6.87
2024-01-11T17:20:26.725Z,6.37
2024-01-11T17:22:57.126Z,4.87
2024-01-11T17:25:26.759Z,4.40
2024-01-11T17:27:55.678Z,4.17
2024-01-11T17:30:24.193Z,4.93
2024-01-11T17:32:52.719Z,3.97
2024-01-11T17:35:21.470Z,4.10
2024-01-11T17:37:50.918Z,5.07
2024-01-11T17:40:21.333Z,4.20
2024-01-11T17:42:49.977Z,4.27
2024-01-11T17:45:18.960Z,4.43
2024-01-11T17:47:47.778Z,3.83
2024-01-11T17:50:17.966Z,4.53
2024-01-11T17:52:48.034Z,4.60
2024-01-11T17:55:18.952Z,5.20
2024-01-11T17:57:49.076Z,4.20
2024-01-11T18:00:17.961Z,4.83
2024-01-11T18:02:47.140Z,5.17
2024-01-11T18:05:17.584Z,4.67
2024-01-11T18:07:46.113Z,4.67
2024-01-11T18:10:16.604Z,4.50
2024-01-11T18:12:48.707Z,5.47
2024-01-11T18:15:19.160Z,4.67
2024-01-11T18:17:48.748Z,5.40
2024-01-11T18:20:18.224Z,4.63
2024-01-11T18:22:48.699Z,5.13
2024-01-11T18:25:17.231Z,5.40
2024-01-11T18:27:46.660Z,4.30
2024-01-11T18:30:15.638Z,4.47
2024-01-11T18:32:47.230Z,5.33
2024-01-11T18:35:15.788Z,4.97
2024-01-11T18:37:44.330Z,5.10
2024-01-11T18:40:15.306Z,4.63
2024-01-11T18:42:44.416Z,4.77
2024-01-11T18:45:13.440Z,4.90
2024-01-11T18:47:42.249Z,4.37
2024-01-11T18:50:13.314Z,4.50
2024-01-11T18:52:43.201Z,4.17
2024-01-11T18:55:17.129Z,4.37
2024-01-11T18:57:48.368Z,5.17
2024-01-11T19:00:18.033Z,4.50
2024-01-11T19:02:50.269Z,3.97
2024-01-11T19:05:21.252Z,3.83
2024-01-11T19:07:50.670Z,2.83
2024-01-11T19:10:20.131Z,4.30
2024-01-11T19:12:48.732Z,4.10
2024-01-11T19:15:17.961Z,3.80
2024-01-11T19:17:46.656Z,4.60
2024-01-11T19:20:16.726Z,4.13
2024-01-11T19:22:48.397Z,5.10
2024-01-11T19:25:19.873Z,4.53
2024-01-11T19:27:50.016Z,4.40
2024-01-11T19:30:20.341Z,3.83
2024-01-11T19:32:49.743Z,4.60
2024-01-11T19:35:19.733Z,4.30
2024-01-11T19:37:50.204Z,5.23
2024-01-11T19:40:20.945Z,4.70
2024-01-11T19:42:49.566Z,4.77
2024-01-11T19:45:18.239Z,4.00
2024-01-11T19:47:46.843Z,4.30
2024-01-11T19:50:15.384Z,4.50
2024-01-11T19:52:43.926Z,4.83
2024-01-11T19:55:14.538Z,5.40
2024-01-11T19:57:43.608Z,5.27
2024-01-11T20:00:13.566Z,4.50
2024-01-11T20:02:43.541Z,4.37
2024-01-11T20:05:14.121Z,4.93
2024-01-11T20:07:44.340Z,4.73
2024-01-11T20:10:14.651Z,4.50
2024-01-11T20:12:43.107Z,5.13
2024-01-11T20:15:11.763Z,4.83
2024-01-11T20:17:40.728Z,4.47
2024-01-11T20:20:11.417Z,4.30
2024-01-11T20:22:39.885Z,4.90
2024-01-11T20:25:08.707Z,5.30
2024-01-11T20:27:38.494Z,4.70
2024-01-11T20:30:12.312Z,4.73
2024-01-11T20:32:42.593Z,3.73
2024-01-11T20:35:11.461Z,5.23
2024-01-11T20:37:41.684Z,4.33
2024-01-11T20:40:12.066Z,4.03
2024-01-11T20:42:42.394Z,3.73
2024-01-11T20:45:10.960Z,3.63
2024-01-11T20:47:39.568Z,3.93
2024-01-11T20:50:09.502Z,4.33
2024-01-11T20:52:38.278Z,4.00
2024-01-11T20:55:06.965Z,4.17
2024-01-11T20:57:35.447Z,4.50
2024-01-11T21:00:09.976Z,5.00
2024-01-11T21:02:40.061Z,3.83
2024-01-11T21:05:09.315Z,5.17
2024-01-11T21:07:38.479Z,4.10
2024-01-11T21:10:08.361Z,4.83
2024-01-11T21:12:36.815Z,4.83
2024-01-11T21:15:07.143Z,5.27
2024-01-11T21:17:37.212Z,5.77
2024-01-11T21:20:06.433Z,5.97
2024-01-11T21:22:36.724Z,5.70
2024-01-11T21:25:07.248Z,4.80
2024-01-11T21:27:36.377Z,5.37
2024-01-11T21:30:07.122Z,5.03
2024-01-11T21:32:46.563Z,5.40
2024-01-11T21:35:22.630Z,4.83
2024-01-11T21:37:58.194Z,6.33
2024-01-11T21:40:37.582Z,5.33
2024-01-11T21:43:15.249Z,5.57
2024-01-11T21:45:54.811Z,5.43
2024-01-11T21:48:32.368Z,5.37
2024-01-11T21:51:13.884Z,5.10
2024-01-11T21:54:02.791Z,6.07
2024-01-11T21:56:41.209Z,6.20
2024-01-11T21:59:20.747Z,5.77
2024-01-11T22:02:08.530Z,5.97
2024-01-11T22:04:50.673Z,5.30
2024-01-11T22:07:29.888Z,5.60
2024-01-11T22:10:13.541Z,5.67
2024-01-11T22:12:55.920Z,4.97
2024-01-11T22:15:37.579Z,4.90
2024-01-11T22:18:21.553Z,4.70
2024-01-11T22:21:07.312Z,4.90
2024-01-11T22:23:48.832Z,5.30
2024-01-11T22:26:30.293Z,5.43
2024-01-11T22:29:11.455Z,4.83
2024-01-11T22:31:49.041Z,4.70
2024-01-11T22:34:37.637Z,4.33
2024-01-11T22:37:15.795Z,4.70
2024-01-11T22:39:54.090Z,4.83
2024-01-11T22:42:30.554Z,4.20
2024-01-11T22:45:08.511Z,4.63
2024-01-11T22:47:45.160Z,4.23
2024-01-11T22:50:26.474Z,4.43
2024-01-11T22:53:06.408Z,3.77
2024-01-11T22:55:44.415Z,3.73
2024-01-11T22:58:24.002Z,3.73
2024-01-11T23:01:05.793Z,3.37
2024-01-11T23:03:40.627Z,3.67
2024-01-11T23:06:32.641Z,3.73
2024-01-11T23:09:14.771Z,3.77
2024-01-11T23:11:49.434Z,3.47
2024-01-11T23:14:38.902Z,4.80
2024-01-11T23:17:15.121Z,3.03
2024-01-11T23:19:52.295Z,2.90
2024-01-11T23:22:36.219Z,2.67
2024-01-11T23:25:14.278Z,3.00
2024-01-11T23:27:50.283Z,2.97
2024-01-11T23:30:26.314Z,2.23
2024-01-11T23:33:07.690Z,2.70
2024-01-11T23:35:45.257Z,2.77
2024-01-11T23:38:25.014Z,2.00
2024-01-11T23:41:00.140Z,2.63
2024-01-11T23:43:37.589Z,2.50
2024-01-11T23:46:14.489Z,2.60
2024-01-11T23:48:49.343Z,3.23
2024-01-11T23:51:29.850Z,1.93
2024-01-11T23:54:13.052Z,2.43
2024-01-11T23:56:52.710Z,2.43
2024-01-11T23:59:28.303Z,2.53
